createdAt,value
2017-11-19T00:02:24.398Z,6.67
2017-11-19T00:04:54.357Z,6.50
2017-11-19T00:07:22.231Z,5.77
2017-11-19T00:09:50.782Z,5.80
2017-11-19T00:12:19.680Z,6.07
2017-11-19T00:14:48.012Z,5.67
2017-11-19T00:17:15.499Z,5.90
2017-11-19T00:19:43.016Z,6.00
2017-11-19T00:22:10.573Z,6.00
2017-11-19T00:24:38.040Z,5.73
2017-11-19T00:27:05.595Z,5.60
2017-11-19T00:29:33.261Z,5.73
2017-11-19T00:32:00.741Z,5.57
2017-11-19T00:34:28.490Z,5.40
2017-11-19T00:36:56.025Z,5.53
2017-11-19T00:39:23.516Z,4.97
2017-11-19T00:41:51.052Z,5.33
2017-11-19T00:44:18.569Z,4.47
2017-11-19T00:46:46.087Z,4.77
2017-11-19T00:49:14.253Z,5.13
2017-11-19T00:51:41.847Z,4.93
2017-11-19T00:54:09.359Z,4.90
2017-11-19T00:56:36.821Z,5.60
2017-11-19T00:59:04.334Z,5.20
2017-11-19T01:01:32.705Z,4.73
2017-11-19T01:04:00.209Z,5.53
2017-11-19T01:06:27.726Z,4.83
2017-11-19T01:11:48.202Z,5.10
2017-11-19T01:14:15.661Z,4.37
2017-11-19T01:16:43.123Z,4.87
2017-11-19T01:19:10.580Z,4.77
2017-11-19T01:21:38.056Z,4.90
2017-11-19T01:24:05.563Z,5.50
2017-11-19T01:26:33.029Z,5.40
2017-11-19T01:29:00.513Z,5.63
2017-11-19T01:31:28.836Z,4.83
2017-11-19T01:33:56.387Z,5.67
2017-11-19T01:36:23.835Z,5.50
2017-11-19T01:38:51.319Z,5.60
2017-11-19T01:41:18.849Z,6.33
2017-11-19T01:43:46.375Z,5.90
2017-11-19T01:46:13.868Z,5.43
2017-11-19T01:48:41.371Z,5.30
2017-11-19T01:51:09.089Z,5.43
2017-11-19T01:53:36.613Z,5.33
2017-11-19T01:56:04.723Z,5.90
2017-11-19T01:58:32.192Z,5.47
2017-11-19T02:00:59.683Z,5.60
2017-11-19T02:03:28.186Z,6.47
2017-11-19T02:05:55.643Z,5.33
2017-11-19T02:08:33.089Z,5.70
2017-11-19T02:11:00.871Z,5.43
2017-11-19T02:13:28.336Z,5.70
2017-11-19T02:15:55.824Z,5.50
2017-11-19T02:18:23.266Z,5.40
2017-11-19T02:20:50.705Z,5.00
2017-11-19T02:23:18.203Z,5.43
2017-11-19T02:25:45.727Z,5.13
2017-11-19T02:28:13.284Z,5.27
2017-11-19T02:30:40.746Z,4.73
2017-11-19T02:33:08.259Z,5.10
2017-11-19T02:35:35.811Z,4.87
2017-11-19T02:38:03.336Z,5.00
2017-11-19T02:40:30.890Z,4.77
2017-11-19T02:42:58.455Z,4.90
2017-11-19T02:45:26.048Z,4.47
2017-11-19T02:47:53.561Z,4.53
2017-11-19T02:50:21.061Z,4.50
2017-11-19T02:52:48.521Z,5.27
2017-11-19T02:55:16.073Z,5.23
2017-11-19T02:57:43.516Z,4.70
2017-11-19T03:00:11.015Z,4.50
2017-11-19T03:02:38.506Z,4.47
2017-11-19T03:05:06.029Z,4.30
2017-11-19T03:07:33.504Z,4.67
2017-11-19T03:10:01.205Z,5.10
2017-11-19T03:12:28.688Z,4.23
2017-11-19T03:14:56.162Z,4.57
2017-11-19T03:17:23.605Z,4.50
2017-11-19T03:19:51.154Z,5.00
2017-11-19T03:22:18.596Z,4.30
2017-11-19T03:24:46.086Z,4.67
2017-11-19T03:27:13.613Z,4.20
2017-11-19T03:29:41.109Z,4.70
2017-11-19T03:32:08.570Z,5.10
2017-11-19T03:34:36.027Z,4.93
2017-11-19T03:37:03.532Z,4.53
2017-11-19T03:39:31.003Z,4.60
2017-11-19T03:41:58.513Z,5.20
2017-11-19T03:44:25.953Z,5.27
2017-11-19T03:46:53.381Z,4.63
2017-11-19T03:49:20.837Z,4.87
2017-11-19T03:51:48.573Z,5.43
2017-11-19T03:54:16.091Z,5.00
2017-11-19T03:56:43.543Z,4.63
2017-11-19T03:59:10.998Z,5.03
2017-11-19T04:01:38.431Z,4.50
2017-11-19T04:04:05.956Z,5.00
2017-11-19T04:06:33.420Z,5.33
2017-11-19T04:09:00.905Z,5.20
2017-11-19T04:11:28.401Z,4.87
2017-11-19T04:13:55.945Z,4.60
2017-11-19T04:16:23.462Z,5.17
2017-11-19T04:18:50.926Z,4.83
2017-11-19T04:21:18.384Z,4.63
2017-11-19T04:23:45.943Z,5.20
2017-11-19T04:26:13.457Z,5.00
2017-11-19T04:28:50.537Z,5.20
2017-11-19T04:31:18.112Z,5.00
2017-11-19T04:33:45.576Z,5.20
2017-11-19T04:36:13.233Z,4.97
2017-11-19T04:38:40.705Z,4.70
2017-11-19T04:41:08.116Z,4.90
2017-11-19T04:43:35.579Z,5.07
2017-11-19T04:46:03.036Z,5.33
2017-11-19T04:48:30.538Z,4.93
2017-11-19T04:50:58.002Z,5.57
2017-11-19T04:53:25.438Z,4.50
2017-11-19T04:55:52.943Z,4.77
2017-11-19T04:58:20.359Z,4.67
2017-11-19T05:00:47.796Z,5.00
2017-11-19T05:03:15.294Z,5.10
2017-11-19T05:05:42.886Z,5.30
2017-11-19T05:08:11.279Z,5.37
2017-11-19T05:10:38.720Z,4.87
2017-11-19T05:13:06.273Z,5.00
2017-11-19T05:15:33.697Z,4.67
2017-11-19T05:18:01.263Z,4.47
2017-11-19T05:20:33.673Z,4.80
2017-11-19T05:23:01.128Z,4.77
2017-11-19T05:25:28.690Z,5.03
2017-11-19T05:27:56.205Z,4.73
2017-11-19T05:30:23.720Z,4.53
2017-11-19T05:32:51.183Z,4.63
2017-11-19T05:35:18.690Z,4.87
2017-11-19T05:37:46.249Z,4.47
2017-11-19T05:40:13.754Z,4.93
2017-11-19T05:42:41.298Z,4.33
2017-11-19T05:45:08.739Z,5.00
2017-11-19T05:47:37.136Z,4.50
2017-11-19T05:50:04.734Z,4.70
2017-11-19T05:52:32.194Z,5.20
2017-11-19T05:55:00.698Z,5.10
2017-11-19T05:57:28.815Z,4.63
2017-11-19T05:59:56.259Z,5.00
2017-11-19T06:02:24.650Z,4.60
2017-11-19T06:04:52.209Z,4.47
2017-11-19T06:07:19.643Z,4.47
2017-11-19T06:09:47.114Z,4.50
2017-11-19T06:12:14.533Z,4.87
2017-11-19T06:14:42.013Z,4.90
2017-11-19T06:17:09.553Z,4.40
2017-11-19T06:19:37.003Z,4.50
2017-11-19T06:22:04.555Z,4.40
2017-11-19T06:24:32.056Z,4.73
2017-11-19T06:26:59.558Z,4.43
2017-11-19T06:29:27.025Z,5.17
2017-11-19T06:31:54.526Z,4.93
2017-11-19T06:34:22.082Z,4.20
2017-11-19T06:36:49.560Z,4.77
2017-11-19T06:39:17.092Z,4.73
2017-11-19T06:41:44.584Z,5.00
2017-11-19T06:44:12.112Z,4.50
2017-11-19T06:46:39.560Z,4.57
2017-11-19T06:49:07.154Z,4.20
2017-11-19T06:51:34.626Z,4.50
2017-11-19T06:54:02.186Z,4.10
2017-11-19T06:56:29.714Z,4.63
2017-11-19T06:58:57.229Z,4.07
2017-11-19T07:01:24.688Z,4.00
2017-11-19T07:03:52.162Z,3.57
2017-11-19T07:06:19.692Z,3.93
2017-11-19T07:08:47.289Z,4.20
2017-11-19T07:11:14.853Z,4.07
2017-11-19T07:13:42.546Z,4.37
2017-11-19T07:16:10.048Z,4.07
2017-11-19T07:18:37.493Z,4.10
2017-11-19T07:21:04.932Z,4.37
2017-11-19T07:23:32.407Z,4.53
2017-11-19T07:25:59.865Z,4.30
2017-11-19T07:28:27.359Z,3.93
2017-11-19T07:30:54.807Z,5.00
2017-11-19T07:33:22.408Z,4.20
2017-11-19T07:35:49.956Z,5.07
2017-11-19T07:38:17.478Z,4.87
2017-11-19T07:40:45.452Z,4.10
2017-11-19T07:43:13.009Z,4.93
2017-11-19T07:45:40.572Z,4.23
2017-11-19T07:48:08.278Z,3.90
2017-11-19T07:50:35.809Z,4.10
2017-11-19T07:53:03.282Z,4.00
2017-11-19T07:55:30.782Z,3.80
2017-11-19T07:57:58.271Z,3.87
2017-11-19T08:00:25.799Z,4.77
2017-11-19T08:02:53.234Z,4.00
2017-11-19T08:05:20.685Z,3.80
2017-11-19T08:07:49.728Z,3.47
2017-11-19T08:10:17.249Z,3.63
2017-11-19T08:12:44.859Z,3.57
2017-11-19T08:15:12.356Z,3.97
2017-11-19T08:17:40.051Z,4.27
2017-11-19T08:20:07.617Z,4.10
2017-11-19T08:22:35.064Z,3.77
2017-11-19T08:25:02.643Z,4.40
2017-11-19T08:27:30.108Z,4.37
2017-11-19T08:29:57.561Z,3.67
2017-11-19T08:32:25.046Z,3.97
2017-11-19T08:34:52.577Z,3.97
2017-11-19T08:37:20.030Z,4.17
2017-11-19T08:39:47.846Z,4.13
2017-11-19T08:42:15.368Z,3.80
2017-11-19T08:44:42.837Z,4.23
2017-11-19T08:47:10.456Z,4.37
2017-11-19T08:49:43.167Z,3.83
2017-11-19T08:52:10.613Z,3.90
2017-11-19T08:54:38.126Z,4.30
2017-11-19T08:57:05.607Z,4.07
2017-11-19T08:59:33.078Z,3.97
2017-11-19T09:02:00.600Z,3.80
2017-11-19T09:04:28.080Z,3.63
2017-11-19T09:06:55.627Z,3.57
2017-11-19T09:09:23.165Z,4.00
2017-11-19T09:11:50.626Z,3.90
2017-11-19T09:14:18.124Z,3.50
2017-11-19T09:16:45.586Z,3.70
2017-11-19T09:19:13.185Z,3.47
2017-11-19T09:21:40.724Z,4.03
2017-11-19T09:24:08.263Z,3.83
2017-11-19T09:26:35.755Z,3.57
2017-11-19T09:29:03.297Z,3.50
2017-11-19T09:31:30.842Z,3.83
2017-11-19T09:33:58.398Z,3.60
2017-11-19T09:36:25.850Z,3.57
2017-11-19T09:38:53.315Z,3.70
2017-11-19T09:41:20.830Z,3.37
2017-11-19T09:43:48.381Z,3.83
2017-11-19T09:46:15.830Z,3.90
2017-11-19T09:48:43.449Z,3.70
2017-11-19T09:51:10.897Z,3.30
2017-11-19T09:53:38.424Z,4.10
2017-11-19T09:56:05.883Z,3.93
2017-11-19T09:58:33.369Z,3.20
2017-11-19T10:01:00.877Z,3.33
2017-11-19T10:03:28.468Z,3.73
2017-11-19T10:05:56.011Z,3.47
2017-11-19T10:08:23.586Z,3.10
2017-11-19T10:10:51.431Z,3.10
2017-11-19T10:13:18.903Z,3.83
2017-11-19T10:15:46.450Z,3.27
2017-11-19T10:18:13.986Z,3.80
2017-11-19T10:21:05.383Z,3.70
2017-11-19T10:23:33.305Z,3.53
2017-11-19T10:26:00.854Z,3.73
2017-11-19T10:28:28.505Z,6.43
2017-11-19T10:30:56.025Z,3.87
2017-11-19T10:33:23.534Z,3.67
2017-11-19T10:35:51.341Z,3.43
2017-11-19T10:38:19.213Z,3.73
2017-11-19T10:40:46.677Z,4.37
2017-11-19T10:43:14.234Z,4.00
2017-11-19T10:45:42.191Z,3.33
2017-11-19T10:48:09.779Z,3.80
2017-11-19T10:50:37.267Z,3.57
2017-11-19T10:53:04.800Z,3.80
2017-11-19T10:55:32.279Z,4.00
2017-11-19T10:57:59.801Z,3.93
2017-11-19T11:00:27.608Z,4.10
2017-11-19T11:02:55.824Z,4.10
2017-11-19T11:05:23.409Z,3.33
2017-11-19T11:07:51.102Z,5.13
2017-11-19T11:10:19.523Z,3.57
2017-11-19T11:12:47.068Z,4.13
2017-11-19T11:15:14.613Z,3.80
2017-11-19T11:17:42.115Z,3.97
2017-11-19T11:20:09.651Z,4.90
2017-11-19T11:22:37.117Z,4.03
2017-11-19T11:25:04.850Z,3.67
2017-11-19T11:27:32.332Z,4.13
2017-11-19T11:29:59.921Z,3.93
2017-11-19T11:32:27.421Z,3.97
2017-11-19T11:34:55.038Z,3.90
2017-11-19T11:37:22.858Z,4.00
2017-11-19T11:39:50.341Z,4.40
2017-11-19T11:42:17.828Z,4.70
2017-11-19T11:44:45.409Z,4.30
2017-11-19T11:47:12.980Z,4.43
2017-11-19T11:49:40.672Z,4.07
2017-11-19T11:52:08.975Z,3.20
2017-11-19T11:54:36.436Z,4.40
2017-11-19T11:57:03.996Z,3.80
2017-11-19T11:59:31.532Z,3.70
2017-11-19T12:01:59.005Z,3.77
2017-11-19T12:04:26.579Z,3.80
2017-11-19T12:06:56.334Z,4.60
2017-11-19T12:09:23.932Z,3.40
2017-11-19T12:11:51.404Z,3.90
2017-11-19T12:14:18.970Z,4.00
2017-11-19T12:16:48.145Z,3.90
2017-11-19T12:19:20.883Z,3.13
2017-11-19T12:21:48.333Z,3.87
2017-11-19T12:24:16.203Z,3.37
2017-11-19T12:26:43.700Z,3.40
2017-11-19T12:29:11.364Z,3.33
2017-11-19T12:31:38.900Z,3.10
2017-11-19T12:34:06.401Z,3.47
2017-11-19T12:36:33.894Z,3.87
2017-11-19T12:39:01.405Z,3.50
2017-11-19T12:41:28.992Z,3.30
2017-11-19T12:43:56.469Z,3.67
2017-11-19T12:46:24.207Z,2.77
2017-11-19T12:48:56.957Z,2.90
2017-11-19T12:51:24.452Z,2.50
2017-11-19T12:53:51.909Z,2.80
2017-11-19T12:56:19.452Z,2.93
2017-11-19T12:58:47.479Z,2.60
2017-11-19T13:01:15.269Z,3.10
2017-11-19T13:03:42.814Z,2.80
2017-11-19T13:06:10.588Z,2.80
2017-11-19T13:08:38.355Z,2.73
2017-11-19T13:11:05.899Z,2.77
2017-11-19T13:13:33.385Z,2.80
2017-11-19T13:16:00.966Z,2.50
2017-11-19T13:18:28.597Z,2.40
2017-11-19T13:20:56.107Z,2.90
2017-11-19T13:23:23.966Z,2.20
2017-11-19T13:25:51.729Z,2.63
2017-11-19T13:28:22.422Z,2.73
2017-11-19T13:30:49.981Z,2.47
2017-11-19T13:33:17.611Z,2.90
2017-11-19T13:35:45.207Z,2.90
2017-11-19T13:38:12.695Z,2.60
2017-11-19T13:40:40.290Z,2.70
2017-11-19T13:43:08.018Z,2.50
2017-11-19T13:45:35.588Z,2.67
2017-11-19T13:48:03.214Z,2.63
2017-11-19T13:50:31.098Z,3.00
2017-11-19T13:52:58.672Z,2.50
2017-11-19T13:55:26.434Z,3.10
2017-11-19T13:57:53.981Z,3.03
2017-11-19T14:00:40.869Z,2.70
2017-11-19T14:03:08.419Z,3.40
2017-11-19T14:05:36.207Z,3.13
2017-11-19T14:08:03.864Z,3.03
2017-11-19T14:10:31.400Z,2.93
2017-11-19T14:12:58.911Z,3.10
2017-11-19T14:15:26.537Z,2.83
2017-11-19T14:17:54.097Z,3.17
2017-11-19T14:20:21.722Z,2.90
2017-11-19T14:22:50.129Z,2.50
2017-11-19T14:25:17.793Z,2.67
2017-11-19T14:27:45.517Z,3.43
2017-11-19T14:30:37.842Z,2.73
2017-11-19T14:33:05.478Z,2.83
2017-11-19T14:35:33.288Z,2.60
2017-11-19T14:38:01.112Z,2.80
2017-11-19T14:40:28.756Z,2.67
2017-11-19T14:43:00.233Z,3.23
2017-11-19T14:45:28.168Z,2.83
2017-11-19T14:47:56.563Z,2.80
2017-11-19T14:50:24.930Z,2.67
2017-11-19T14:52:52.548Z,4.10
2017-11-19T14:55:23.741Z,2.97
2017-11-19T14:57:51.354Z,3.13
2017-11-19T15:00:28.569Z,2.90
2017-11-19T15:02:56.148Z,3.87
2017-11-19T15:05:25.586Z,2.90
2017-11-19T15:07:54.382Z,2.50
2017-11-19T15:10:22.590Z,3.10
2017-11-19T15:12:50.921Z,2.83
2017-11-19T15:15:18.574Z,2.87
2017-11-19T15:17:46.064Z,3.13
2017-11-19T15:20:13.680Z,3.10
2017-11-19T15:22:41.194Z,2.73
2017-11-19T15:25:08.709Z,2.73
2017-11-19T15:27:36.303Z,3.23
2017-11-19T15:30:03.861Z,3.40
2017-11-19T15:32:31.364Z,4.03
2017-11-19T15:34:58.913Z,3.13
2017-11-19T15:37:26.489Z,3.10
2017-11-19T15:39:54.985Z,3.27
2017-11-19T15:42:22.511Z,2.97
2017-11-19T15:44:49.967Z,3.47
2017-11-19T15:47:17.570Z,3.47
2017-11-19T15:49:45.210Z,3.43
2017-11-19T15:52:13.185Z,3.20
2017-11-19T15:54:40.758Z,3.20
2017-11-19T15:57:08.281Z,3.40
2017-11-19T15:59:35.841Z,3.80
2017-11-19T16:02:03.389Z,3.70
2017-11-19T16:04:31.947Z,3.20
2017-11-19T16:06:59.553Z,2.77
2017-11-19T16:09:27.377Z,3.07
2017-11-19T16:11:58.047Z,2.80
2017-11-19T16:14:26.419Z,3.00
2017-11-19T16:16:58.292Z,3.20
2017-11-19T16:19:29.580Z,3.17
2017-11-19T16:21:57.291Z,3.10
2017-11-19T16:24:24.826Z,2.80
2017-11-19T16:26:52.308Z,3.10
2017-11-19T16:29:39.120Z,2.90
2017-11-19T16:32:06.642Z,2.70
2017-11-19T16:34:34.218Z,2.70
2017-11-19T16:37:01.683Z,2.60
2017-11-19T16:39:29.268Z,2.77
2017-11-19T16:41:59.499Z,3.40
2017-11-19T16:44:27.271Z,3.20
2017-11-19T16:46:54.754Z,3.17
2017-11-19T16:49:22.282Z,3.20
2017-11-19T16:51:49.726Z,3.20
2017-11-19T16:54:17.158Z,3.47
2017-11-19T16:56:44.627Z,3.30
2017-11-19T16:59:12.172Z,3.57
2017-11-19T17:01:39.649Z,3.20
2017-11-19T17:04:07.210Z,3.93
2017-11-19T17:06:34.752Z,3.97
2017-11-19T17:09:02.209Z,3.73
2017-11-19T17:11:29.725Z,4.07
2017-11-19T17:13:57.509Z,3.43
2017-11-19T17:16:25.276Z,3.30
2017-11-19T17:18:52.859Z,2.90
2017-11-19T17:21:20.317Z,3.10
2017-11-19T17:23:47.847Z,3.10
2017-11-19T17:26:15.339Z,3.60
2017-11-19T17:28:42.944Z,3.50
2017-11-19T17:31:11.549Z,3.50
2017-11-19T17:33:39.576Z,3.43
2017-11-19T17:36:12.659Z,3.40
2017-11-19T17:38:40.432Z,3.47
2017-11-19T17:41:08.032Z,4.07
2017-11-19T17:43:35.832Z,3.47
2017-11-19T17:46:03.447Z,3.50
2017-11-19T17:48:31.096Z,3.40
2017-11-19T17:51:08.311Z,3.27
2017-11-19T17:53:35.909Z,3.67
2017-11-19T17:56:03.585Z,3.60
2017-11-19T17:58:31.150Z,3.33
2017-11-19T18:00:58.894Z,3.60
2017-11-19T18:03:26.562Z,3.57
2017-11-19T18:05:54.058Z,4.00
2017-11-19T18:08:21.745Z,4.43
2017-11-19T18:10:49.339Z,3.73
2017-11-19T18:13:16.909Z,3.50
2017-11-19T18:15:44.414Z,3.93
2017-11-19T18:18:12.294Z,4.00
2017-11-19T18:20:39.746Z,4.50
2017-11-19T18:23:07.483Z,4.00
2017-11-19T18:25:35.073Z,4.13
2017-11-19T18:28:03.736Z,3.70
2017-11-19T18:30:37.220Z,3.63
2017-11-19T18:33:04.816Z,3.70
2017-11-19T18:35:32.347Z,3.30
2017-11-19T18:37:59.938Z,3.43
2017-11-19T18:43:34.873Z,3.83
2017-11-19T18:46:02.374Z,3.93
2017-11-19T18:48:30.936Z,4.17
2017-11-19T18:51:17.919Z,4.10
2017-11-19T18:53:46.052Z,4.10
2017-11-19T18:56:13.564Z,4.90
2017-11-19T18:58:41.072Z,4.47
2017-11-19T19:01:08.656Z,4.20
2017-11-19T19:03:36.333Z,4.93
2017-11-19T19:06:04.771Z,4.03
2017-11-19T19:08:32.540Z,4.70
2017-11-19T19:11:01.238Z,3.90
2017-11-19T19:13:28.831Z,4.37
2017-11-19T19:15:56.667Z,4.30
2017-11-19T19:18:24.618Z,3.60
2017-11-19T19:20:52.576Z,3.43
2017-11-19T19:23:20.203Z,3.40
2017-11-19T19:25:48.140Z,3.47
2017-11-19T19:28:15.717Z,3.90
2017-11-19T19:30:43.378Z,3.17
2017-11-19T19:33:11.290Z,3.80
2017-11-19T19:35:38.916Z,3.60
2017-11-19T19:38:06.360Z,3.90
2017-11-19T19:40:33.929Z,4.00
2017-11-19T19:43:01.427Z,3.77
2017-11-19T19:45:29.249Z,3.87
2017-11-19T19:47:56.791Z,3.97
2017-11-19T19:50:29.697Z,3.97
2017-11-19T19:52:58.364Z,4.00
2017-11-19T19:55:25.945Z,3.00
2017-11-19T19:57:54.268Z,3.00
2017-11-19T20:00:22.932Z,3.10
2017-11-19T20:02:50.536Z,2.93
2017-11-19T20:05:18.248Z,2.90
2017-11-19T20:07:46.681Z,3.17
2017-11-19T20:10:14.344Z,3.17
2017-11-19T20:12:41.879Z,2.80
2017-11-19T20:15:09.357Z,3.50
2017-11-19T20:17:36.993Z,3.37
2017-11-19T20:20:04.582Z,2.83
2017-11-19T20:22:32.135Z,2.93
2017-11-19T20:24:59.951Z,3.13
2017-11-19T20:27:27.552Z,3.50
2017-11-19T20:29:55.165Z,3.50
2017-11-19T20:32:22.688Z,3.67
2017-11-19T20:34:50.249Z,4.13
2017-11-19T20:37:17.748Z,4.07
2017-11-19T20:39:45.367Z,3.90
2017-11-19T20:42:12.916Z,3.40
2017-11-19T20:44:41.735Z,3.40
2017-11-19T20:47:09.472Z,3.93
2017-11-19T20:49:37.274Z,4.30
2017-11-19T20:52:05.045Z,3.97
2017-11-19T20:54:34.646Z,3.83
2017-11-19T20:57:02.281Z,4.67
2017-11-19T20:59:34.955Z,3.90
2017-11-19T21:02:03.354Z,3.80
2017-11-19T21:04:31.078Z,4.10
2017-11-19T21:06:58.585Z,3.93
2017-11-19T21:09:26.197Z,3.73
2017-11-19T21:11:53.776Z,3.40
2017-11-19T21:14:21.456Z,3.23
2017-11-19T21:16:48.994Z,3.80
2017-11-19T21:19:16.606Z,3.73
2017-11-19T21:21:44.136Z,3.40
2017-11-19T21:24:11.711Z,3.07
2017-11-19T21:26:39.562Z,3.80
2017-11-19T21:29:07.030Z,3.93
2017-11-19T21:31:34.967Z,4.17
2017-11-19T21:34:03.675Z,3.90
2017-11-19T21:36:32.014Z,3.13
2017-11-19T21:38:59.749Z,3.50
2017-11-19T21:41:27.676Z,3.40
2017-11-19T21:43:55.345Z,3.00
2017-11-19T21:46:22.873Z,3.30
2017-11-19T21:48:50.458Z,3.10
2017-11-19T21:51:18.215Z,3.20
2017-11-19T21:53:45.753Z,3.87
2017-11-19T21:56:14.179Z,3.60
2017-11-19T21:58:41.759Z,3.50
2017-11-19T22:01:09.305Z,3.83
2017-11-19T22:03:36.906Z,3.53
2017-11-19T22:06:04.641Z,3.40
2017-11-19T22:08:32.109Z,3.30
2017-11-19T22:11:05.770Z,3.30
2017-11-19T22:13:33.657Z,3.47
2017-11-19T22:16:01.260Z,3.50
2017-11-19T22:18:28.890Z,2.80
2017-11-19T22:20:56.377Z,3.00
2017-11-19T22:23:24.701Z,2.90
2017-11-19T22:25:53.345Z,2.80
2017-11-19T22:28:21.025Z,3.00
2017-11-19T22:30:48.662Z,3.27
2017-11-19T22:33:16.216Z,3.70
2017-11-19T22:35:43.943Z,3.03
2017-11-19T22:38:12.369Z,2.70
2017-11-19T22:40:39.945Z,2.40
2017-11-19T22:43:07.419Z,2.37
2017-11-19T22:45:35.163Z,2.50
2017-11-19T22:48:02.743Z,2.50
2017-11-19T22:50:30.489Z,2.50
2017-11-19T22:52:58.024Z,2.17
2017-11-19T22:55:25.690Z,2.27
2017-11-19T22:57:53.145Z,2.20
2017-11-19T23:00:20.631Z,2.23
2017-11-19T23:02:48.165Z,2.50
2017-11-19T23:05:16.601Z,2.33
2017-11-19T23:07:44.105Z,2.23
2017-11-19T23:10:25.801Z,2.07
2017-11-19T23:12:53.510Z,2.03
2017-11-19T23:15:20.946Z,2.37
2017-11-19T23:17:48.483Z,1.90
2017-11-19T23:20:15.992Z,2.17
2017-11-19T23:22:43.689Z,2.10
2017-11-19T23:25:11.299Z,2.17
2017-11-19T23:27:38.818Z,2.00
2017-11-19T23:30:25.630Z,2.00
2017-11-19T23:32:53.085Z,2.00
2017-11-19T23:35:20.639Z,2.07
2017-11-19T23:37:48.178Z,2.00
2017-11-19T23:40:15.752Z,2.03
2017-11-19T23:42:43.414Z,2.17
2017-11-19T23:45:11.134Z,2.33
2017-11-19T23:47:38.644Z,2.03
2017-11-19T23:50:06.117Z,2.10
2017-11-19T23:52:33.561Z,2.60
2017-11-19T23:55:01.070Z,2.20
2017-11-19T23:57:28.588Z,2.03
2017-11-19T23:59:56.484Z,2.17
